• Join FlightAware (Why Join?)
  • Login
  • US Flag 
12:27PM EDT


 

Airport Tracker/Info


-or-


 

Live Flight TrackerFlight Track Log ✈ N960DL ✈ 03-May-2013 ✈ KJAN - KATL

Flight Track Log - Related Links

Times and Time Zones

All times are in EDT time to prevent confusion due to time zone crossing. See the N960DL flight status page for this flight to view local times or setup timezone preferences in your user account.

Time Position Orientation Groundspeed Altitude Reporting Facility
EDT Latitude Longitude Course Direction KTS MPH feet Rate Location/Type
09:10AM 32.3334 -89.5550 90° East  Level FlightAware Approximate
09:10AM 32.4292 -90.0153 90° East 278 320 6,300  Level Memphis Center
09:11AM 32.3334 -89.4264 90° East  Level FlightAware Approximate
09:11AM 32.4144 -89.9119 100° East 266 306 9,400  Level Memphis Center
09:12AM 32.3515 -89.3015 87° East  Level FlightAware Approximate
09:12AM 32.4119 -89.8158 92° East 276 318 10,000  Level Memphis Center
09:13AM 32.3574 -89.1730 87° East  Level FlightAware Approximate
09:13AM 32.4092 -89.6978 92° East 314 361 11,300  Level Memphis Center
09:14AM 32.3632 -89.0445 87° East  Level FlightAware Approximate
09:14AM 32.4042 -89.5675 93° East 356 410 13,800  Level Memphis Center
09:15AM 32.3667 -88.9159 90° East  Level FlightAware Approximate
09:15AM 32.4014 -89.4347 91° East 389 448 15,900  Level Memphis Center
09:16AM 32.3939 -89.2944 94° East 406 467 18,000 2,040 Climbing Memphis Center
09:17AM 32.3906 -89.1519 92° East 421 484 20,000 1,800 Climbing Memphis Center
09:18AM 32.3847 -88.9994 93° East 436 502 21,700 1,560 Climbing Memphis Center
09:19AM 32.3808 -88.8469 92° East 454 522 23,200 1,440 Climbing Memphis Center
09:20AM 32.3914 -88.6892 85° East 466 536 24,600 1,380 Climbing Memphis Center
09:21AM 32.4064 -88.5611 82° East 481 554 26,000 1,560 Climbing Memphis Center
09:23AM 32.4536 -88.1814 82° East 467 537 29,800 1,560 Climbing Atlanta Center
09:24AM 32.4689 -88.0319 83° East 467 537 31,200 1,200 Climbing Atlanta Center
09:25AM 32.4836 -87.8947 83° East 466 536 32,200 900 Climbing Atlanta Center
09:26AM 32.5031 -87.7431 81° East 466 536 33,000 360 Climbing Atlanta Center
09:27AM 32.5369 -87.5842 76° East 461 531 33,000  Level Atlanta Center
09:28AM 32.5681 -87.4353 76° East 461 531 33,000  Level Atlanta Center
09:29AM 32.6036 -87.2836 74° East 471 542 33,000 -420 Level Atlanta Center
09:30AM 32.6344 -87.1344 76° East 471 542 32,200 -1,020 Descending Atlanta Center
09:31AM 32.6717 -86.9828 74° East 466 536 31,000 -1,140 Descending Atlanta Center
09:32AM 32.7044 -86.8331 75° East 471 542 30,000 -1,260 Descending Atlanta Center
09:33AM 32.7369 -86.6786 76° East 471 542 28,500 -1,440 Descending Atlanta Center
09:34AM 32.7714 -86.5242 75° East 471 542 27,200 -1,200 Descending Atlanta Center
09:35AM 32.8039 -86.3669 76° East 476 548 26,200 -960 Descending Atlanta Center
09:36AM 32.8378 -86.2144 75° East 476 548 25,300 -840 Descending Atlanta Center
09:37AM 32.8697 -86.0594 76° East 476 548 24,600 -720 Descending Atlanta Center
09:38AM 32.9014 -85.9117 76° East 466 536 23,900 -660 Descending Atlanta Center
09:39AM 32.9328 -85.7639 76° East 460 529 23,300 -960 Descending Atlanta Center
09:40AM 32.9617 -85.6158 77° East 455 524 22,000 -1,320 Descending Atlanta Center
09:41AM 32.9906 -85.4853 75° East 434 499 20,700 -1,560 Descending Atlanta Center
09:43AM 33.0408 -85.2631 75° East 363 418 17,400 -1,740 Descending Atlanta Center
09:44AM 33.0753 -85.1692 66° East 309 356 15,500 -1,980 Descending Atlanta Center
09:45AM 33.1322 -85.0931 48° Northeast 309 356 13,500 -1,800 Descending Atlanta Center
09:46AM 33.1914 -85.0194 46° Northeast 303 349 11,900 -780 Descending Atlanta Center
09:47AM 33.2397 -84.9578 47° Northeast 273 314 12,000  Climbing Atlanta Center
09:48AM 33.2842 -84.8986 48° Northeast 246 283 11,900 -780 Descending Atlanta Center
09:49AM 33.3261 -84.8394 50° Northeast 235 270 10,500 -1,560 Descending Atlanta Center
09:50AM 33.3703 -84.7825 47° Northeast 235 270 8,800 -1,440 Descending Atlanta Center
09:51AM 33.4350 -84.8056 343° North 223 257 7,700 -1,560 Descending Atlanta Center
09:52AM 33.5000 -84.8500 330° Northwest 268 308 5,800 -1,560 Descending Atlanta TRACON
09:53AM 33.5500 -84.8833 331° Northwest 264 304 4,700 -960 Descending Atlanta TRACON
09:54AM 33.6000 -84.8833 360° North 216 249 4,000 -420 Descending Atlanta TRACON
09:55AM 33.6167 -84.8333 68° East 156 180 4,000  Level Atlanta TRACON
09:56AM 33.6167 -84.7833 90° East 155 178 4,000  Level Atlanta TRACON
09:57AM 33.6167 -84.7333 90° East 155 178 4,000  Level Atlanta TRACON
09:58AM 33.6167 -84.6833 90° East 155 178 4,000  Level Atlanta TRACON
09:59AM 33.6167 -84.6333 90° East 153 176 4,000 -420 Level Atlanta TRACON
10:00AM 33.6167 -84.5833 90° East 149 171 3,300 -720 Descending Atlanta TRACON